sensor_id;sensor_type;location;lat;lon;timestamp;pressure;altitude;pressure_sealevel;temperature;humidity
45255;BME280;30989;52.078;21.014;2023-05-10T00:00:13;165472.88;;;6.57;62.29
45255;BME280;30989;52.078;21.014;2023-05-10T00:02:39;165468.88;;;6.55;62.74
45255;BME280;30989;52.078;21.014;2023-05-10T00:05:05;165452.84;;;6.49;63.04
45255;BME280;30989;52.078;21.014;2023-05-10T00:07:30;165444.84;;;6.46;63.42
45255;BME280;30989;52.078;21.014;2023-05-10T00:09:56;165434.16;;;6.42;63.15
45255;BME280;30989;52.078;21.014;2023-05-10T00:12:21;165422.13;;;6.37;63.95
45255;BME280;30989;52.078;21.014;2023-05-10T00:14:47;165428.81;;;6.40;63.49
45255;BME280;30989;52.078;21.014;2023-05-10T00:17:12;165418.13;;;6.36;64.14
45255;BME280;30989;52.078;21.014;2023-05-10T00:19:37;165415.44;;;6.35;64.31
45255;BME280;30989;52.078;21.014;2023-05-10T00:22:03;165404.75;;;6.31;63.88
45255;BME280;30989;52.078;21.014;2023-05-10T00:24:28;165395.41;;;6.27;64.42
45255;BME280;30989;52.078;21.014;2023-05-10T00:26:54;165386.06;;;6.24;63.85
45255;BME280;30989;52.078;21.014;2023-05-10T00:29:19;165383.41;;;6.23;63.98
45255;BME280;30989;52.078;21.014;2023-05-10T00:31:45;165383.41;;;6.23;64.03
45255;BME280;30989;52.078;21.014;2023-05-10T00:34:10;165374.03;;;6.19;63.95
45255;BME280;30989;52.078;21.014;2023-05-10T00:36:36;165368.69;;;6.17;64.30
45255;BME280;30989;52.078;21.014;2023-05-10T00:39:02;165364.69;;;6.16;64.51
45255;BME280;30989;52.078;21.014;2023-05-10T00:41:29;165351.34;;;6.10;64.46
45255;BME280;30989;52.078;21.014;2023-05-10T00:43:58;165340.66;;;6.06;65.04
45255;BME280;30989;52.078;21.014;2023-05-10T00:46:24;165348.66;;;6.09;65.18
45255;BME280;30989;52.078;21.014;2023-05-10T00:48:50;165343.31;;;6.07;64.69
45255;BME280;30989;52.078;21.014;2023-05-10T00:51:16;165329.97;;;6.02;65.29
45255;BME280;30989;52.078;21.014;2023-05-10T00:53:43;165320.63;;;5.99;64.63
45255;BME280;30989;52.078;21.014;2023-05-10T00:56:09;165313.94;;;5.96;64.94
45255;BME280;30989;52.078;21.014;2023-05-10T00:58:34;165319.28;;;5.98;65.52
45255;BME280;30989;52.078;21.014;2023-05-10T01:01:00;165317.97;;;5.98;65.08
45255;BME280;30989;52.078;21.014;2023-05-10T01:03:26;165307.28;;;5.94;65.17
45255;BME280;30989;52.078;21.014;2023-05-10T01:05:52;165303.28;;;5.92;65.21
45255;BME280;30989;52.078;21.014;2023-05-10T01:08:18;165297.94;;;5.90;64.96
45255;BME280;30989;52.078;21.014;2023-05-10T01:10:44;165299.25;;;5.91;65.53
45255;BME280;30989;52.078;21.014;2023-05-10T01:13:11;165273.84;;;5.81;65.48
45255;BME280;30989;52.078;21.014;2023-05-10T01:15:37;165285.84;;;5.86;65.72
45255;BME280;30989;52.078;21.014;2023-05-10T01:18:04;165272.50;;;5.80;65.17
45255;BME280;30989;52.078;21.014;2023-05-10T01:20:37;165255.16;;;5.74;65.53
45255;BME280;30989;52.078;21.014;2023-05-10T01:26:24;165263.16;;;5.77;65.86
45255;BME280;30989;52.078;21.014;2023-05-10T01:29:17;165253.81;;;5.73;66.07
45255;BME280;30989;52.078;21.014;2023-05-10T01:34:27;165248.47;;;5.71;65.96
45255;BME280;30989;52.078;21.014;2023-05-10T01:36:58;165231.13;;;5.65;66.16
45255;BME280;30989;52.078;21.014;2023-05-10T01:39:36;165224.44;;;5.62;65.97
45255;BME280;30989;52.078;21.014;2023-05-10T01:42:10;165223.09;;;5.62;65.90
45255;BME280;30989;52.078;21.014;2023-05-10T01:44:49;165224.44;;;5.62;66.36
45255;BME280;30989;52.078;21.014;2023-05-10T01:47:50;165215.09;;;5.59;66.90
45255;BME280;30989;52.078;21.014;2023-05-10T01:50:24;165193.75;;;5.50;66.71
45255;BME280;30989;52.078;21.014;2023-05-10T01:52:56;165195.06;;;5.51;66.61
45255;BME280;30989;52.078;21.014;2023-05-10T01:55:27;165185.72;;;5.47;66.48
45255;BME280;30989;52.078;21.014;2023-05-10T01:58:22;165169.72;;;5.41;67.66
45255;BME280;30989;52.078;21.014;2023-05-10T02:00:49;165188.41;;;5.48;66.80
45255;BME280;30989;52.078;21.014;2023-05-10T02:03:20;165183.06;;;5.46;67.23
45255;BME280;30989;52.078;21.014;2023-05-10T02:05:48;165172.38;;;5.42;67.22
45255;BME280;30989;52.078;21.014;2023-05-10T02:08:14;165152.38;;;5.35;67.93
45255;BME280;30989;52.078;21.014;2023-05-10T02:10:42;165155.03;;;5.36;67.62
45255;BME280;30989;52.078;21.014;2023-05-10T02:13:09;165152.38;;;5.35;67.23
45255;BME280;30989;52.078;21.014;2023-05-10T02:15:36;165133.69;;;5.28;67.07
45255;BME280;30989;52.078;21.014;2023-05-10T02:18:04;165132.34;;;5.27;67.38
45255;BME280;30989;52.078;21.014;2023-05-10T02:20:32;165121.66;;;5.23;67.11
45255;BME280;30989;52.078;21.014;2023-05-10T02:22:59;165128.34;;;5.26;67.49
45255;BME280;30989;52.078;21.014;2023-05-10T02:25:26;165124.34;;;5.24;68.00
45255;BME280;30989;52.078;21.014;2023-05-10T02:27:55;165105.59;;;5.17;68.13
45255;BME280;30989;52.078;21.014;2023-05-10T02:30:22;165113.66;;;5.20;68.42
45255;BME280;30989;52.078;21.014;2023-05-10T02:32:50;165115.00;;;5.21;68.34
45255;BME280;30989;52.078;21.014;2023-05-10T02:35:16;165097.59;;;5.14;68.13
45255;BME280;30989;52.078;21.014;2023-05-10T02:37:43;165105.59;;;5.17;68.85
45255;BME280;30989;52.078;21.014;2023-05-10T02:40:10;165086.91;;;5.10;68.83
45255;BME280;30989;52.078;21.014;2023-05-10T02:42:37;165102.94;;;5.16;68.94
45255;BME280;30989;52.078;21.014;2023-05-10T02:45:17;165101.59;;;5.15;68.62
45255;BME280;30989;52.078;21.014;2023-05-10T02:47:43;165094.91;;;5.13;69.22
45255;BME280;30989;52.078;21.014;2023-05-10T02:50:09;165081.59;;;5.08;68.74
45255;BME280;30989;52.078;21.014;2023-05-10T02:52:40;165057.56;;;4.99;69.19
45255;BME280;30989;52.078;21.014;2023-05-10T02:55:09;165073.56;;;5.05;69.20
45255;BME280;30989;52.078;21.014;2023-05-10T02:57:41;165070.91;;;5.04;68.80
45255;BME280;30989;52.078;21.014;2023-05-10T03:00:08;165062.91;;;5.01;69.26
45255;BME280;30989;52.078;21.014;2023-05-10T03:02:34;165050.88;;;4.96;68.98
45255;BME280;30989;52.078;21.014;2023-05-10T03:04:59;165050.88;;;4.96;68.94
45255;BME280;30989;52.078;21.014;2023-05-10T03:07:25;165028.22;;;4.88;69.36
45255;BME280;30989;52.078;21.014;2023-05-10T03:09:50;165046.88;;;4.95;69.91
45255;BME280;30989;52.078;21.014;2023-05-10T03:12:31;165046.88;;;4.95;69.79
45255;BME280;30989;52.078;21.014;2023-05-10T03:17:47;165044.22;;;4.94;70.43
45255;BME280;30989;52.078;21.014;2023-05-10T03:20:31;165033.53;;;4.90;69.72
45255;BME280;30989;52.078;21.014;2023-05-10T03:23:09;165038.88;;;4.92;70.28
45255;BME280;30989;52.078;21.014;2023-05-10T03:25:37;165020.19;;;4.84;69.35
45255;BME280;30989;52.078;21.014;2023-05-10T03:28:05;165026.88;;;4.87;69.89
45255;BME280;30989;52.078;21.014;2023-05-10T03:30:32;165044.22;;;4.94;70.04
45255;BME280;30989;52.078;21.014;2023-05-10T03:33:07;165041.53;;;4.93;70.28
45255;BME280;30989;52.078;21.014;2023-05-10T03:35:36;165036.22;;;4.91;70.15
45255;BME280;30989;52.078;21.014;2023-05-10T03:38:02;165041.53;;;4.93;70.46
45255;BME280;30989;52.078;21.014;2023-05-10T03:40:28;165056.22;;;4.98;70.53
45255;BME280;30989;52.078;21.014;2023-05-10T03:42:58;165053.56;;;4.97;70.64
45255;BME280;30989;52.078;21.014;2023-05-10T03:45:23;165062.91;;;5.01;70.70
45255;BME280;30989;52.078;21.014;2023-05-10T03:47:49;165073.56;;;5.05;70.72
45255;BME280;30989;52.078;21.014;2023-05-10T03:50:14;165077.56;;;5.06;70.33
45255;BME280;30989;52.078;21.014;2023-05-10T03:52:39;165089.59;;;5.11;70.79
45255;BME280;30989;52.078;21.014;2023-05-10T03:55:06;165106.94;;;5.17;70.96
45255;BME280;30989;52.078;21.014;2023-05-10T03:57:31;165115.00;;;5.21;70.78
45255;BME280;30989;52.078;21.014;2023-05-10T03:59:57;165123.00;;;5.24;70.43
45255;BME280;30989;52.078;21.014;2023-05-10T04:02:22;165137.69;;;5.29;70.56
45255;BME280;30989;52.078;21.014;2023-05-10T04:04:48;165153.69;;;5.35;70.52
45255;BME280;30989;52.078;21.014;2023-05-10T04:07:13;165165.72;;;5.40;70.48
45255;BME280;30989;52.078;21.014;2023-05-10T04:09:39;165183.06;;;5.46;71.17
45255;BME280;30989;52.078;21.014;2023-05-10T04:12:05;165203.09;;;5.54;70.24
45255;BME280;30989;52.078;21.014;2023-05-10T04:14:31;165215.09;;;5.59;70.50
45255;BME280;30989;52.078;21.014;2023-05-10T04:16:56;165221.78;;;5.61;69.96
45255;BME280;30989;52.078;21.014;2023-05-10T04:19:21;165267.16;;;5.78;70.28
45255;BME280;30989;52.078;21.014;2023-05-10T04:21:47;165280.53;;;5.83;69.72
45255;BME280;30989;52.078;21.014;2023-05-10T04:24:13;165303.28;;;5.92;69.69
45255;BME280;30989;52.078;21.014;2023-05-10T04:26:38;165329.97;;;6.02;69.89
45255;BME280;30989;52.078;21.014;2023-05-10T04:29:03;165315.28;;;5.97;69.63
45255;BME280;30989;52.078;21.014;2023-05-10T04:31:29;165375.38;;;6.20;69.19
45255;BME280;30989;52.078;21.014;2023-05-10T04:33:54;165399.41;;;6.29;69.14
45255;BME280;30989;52.078;21.014;2023-05-10T04:36:20;165423.47;;;6.38;68.16
45255;BME280;30989;52.078;21.014;2023-05-10T04:38:45;165450.16;;;6.48;68.05
45255;BME280;30989;52.078;21.014;2023-05-10T04:41:10;165459.53;;;6.52;68.52
45255;BME280;30989;52.078;21.014;2023-05-10T04:43:37;165492.91;;;6.64;67.92
45255;BME280;30989;52.078;21.014;2023-05-10T04:46:03;165533.00;;;6.79;67.76
45255;BME280;30989;52.078;21.014;2023-05-10T04:48:30;165557.03;;;6.89;67.56
45255;BME280;30989;52.078;21.014;2023-05-10T04:50:55;165551.69;;;6.87;67.74
45255;BME280;30989;52.078;21.014;2023-05-10T04:53:21;165589.13;;;7.01;67.26
45255;BME280;30989;52.078;21.014;2023-05-10T04:55:47;165627.88;;;7.16;67.00
45255;BME280;30989;52.078;21.014;2023-05-10T04:58:13;165661.28;;;7.28;66.92
45255;BME280;30989;52.078;21.014;2023-05-10T05:00:38;165685.34;;;7.37;66.39
45255;BME280;30989;52.078;21.014;2023-05-10T05:03:04;165706.72;;;7.46;66.25
45255;BME280;30989;52.078;21.014;2023-05-10T05:05:30;165752.16;;;7.63;65.90
45255;BME280;30989;52.078;21.014;2023-05-10T05:07:55;165784.25;;;7.75;65.70
45255;BME280;30989;52.078;21.014;2023-05-10T05:10:21;165811.00;;;7.85;65.04
45255;BME280;30989;52.078;21.014;2023-05-10T05:12:46;165848.44;;;7.99;64.58
45255;BME280;30989;52.078;21.014;2023-05-10T05:15:12;165879.19;;;8.11;64.19
45255;BME280;30989;52.078;21.014;2023-05-10T05:17:37;165904.59;;;8.21;64.30
45255;BME280;30989;52.078;21.014;2023-05-10T05:20:03;165934.00;;;8.32;63.81
45255;BME280;30989;52.078;21.014;2023-05-10T05:22:29;165960.81;;;8.42;63.15
45255;BME280;30989;52.078;21.014;2023-05-10T05:24:55;165988.91;;;8.53;63.11
45255;BME280;30989;52.078;21.014;2023-05-10T05:27:21;166025.00;;;8.66;62.69
45255;BME280;30989;52.078;21.014;2023-05-10T05:29:50;166062.47;;;8.81;62.80
45255;BME280;30989;52.078;21.014;2023-05-10T05:32:16;166094.59;;;8.93;62.59
45255;BME280;30989;52.078;21.014;2023-05-10T05:34:41;166128.03;;;9.05;61.86
45255;BME280;30989;52.078;21.014;2023-05-10T05:37:07;166153.47;;;9.15;61.21
45255;BME280;30989;52.078;21.014;2023-05-10T05:39:32;166192.25;;;9.30;60.77
45255;BME280;30989;52.078;21.014;2023-05-10T05:41:58;166209.66;;;9.36;60.97
45255;BME280;30989;52.078;21.014;2023-05-10T05:44:23;166251.16;;;9.52;60.56
45255;BME280;30989;52.078;21.014;2023-05-10T05:46:48;166281.94;;;9.64;60.26
45255;BME280;30989;52.078;21.014;2023-05-10T05:49:14;166300.66;;;9.71;60.51
45255;BME280;30989;52.078;21.014;2023-05-10T05:51:39;166332.81;;;9.83;59.84
45255;BME280;30989;52.078;21.014;2023-05-10T05:54:05;166348.88;;;9.89;59.68
45255;BME280;30989;52.078;21.014;2023-05-10T05:56:31;166389.03;;;10.05;59.62
45255;BME280;30989;52.078;21.014;2023-05-10T05:58:56;166410.44;;;10.13;58.83
45255;BME280;30989;52.078;21.014;2023-05-10T06:01:22;166429.25;;;10.20;58.68
45255;BME280;30989;52.078;21.014;2023-05-10T06:03:47;166472.09;;;10.36;58.89
45255;BME280;30989;52.078;21.014;2023-05-10T06:06:13;166501.59;;;10.47;58.95
45255;BME280;30989;52.078;21.014;2023-05-10T06:08:38;166536.44;;;10.60;58.19
45255;BME280;30989;52.078;21.014;2023-05-10T06:11:04;166571.25;;;10.74;57.62
45255;BME280;30989;52.078;21.014;2023-05-10T06:13:29;166581.97;;;10.78;57.78
45255;BME280;30989;52.078;21.014;2023-05-10T06:16:00;166611.44;;;10.89;56.83
45255;BME280;30989;52.078;21.014;2023-05-10T06:18:26;166650.28;;;11.04;57.05
45255;BME280;30989;52.078;21.014;2023-05-10T06:20:51;166678.44;;;11.14;56.49
45255;BME280;30989;52.078;21.014;2023-05-10T06:23:17;166711.94;;;11.27;56.00
45255;BME280;30989;52.078;21.014;2023-05-10T06:25:43;166742.75;;;11.39;56.62
45255;BME280;30989;52.078;21.014;2023-05-10T06:28:08;166781.59;;;11.53;54.17
45255;BME280;30989;52.078;21.014;2023-05-10T06:30:35;166812.44;;;11.65;54.65
45255;BME280;30989;52.078;21.014;2023-05-10T06:33:01;166850.00;;;11.79;54.38
45255;BME280;30989;52.078;21.014;2023-05-10T06:35:26;166876.81;;;11.89;53.92
45255;BME280;30989;52.078;21.014;2023-05-10T06:37:52;166903.63;;;12.00;53.40
45255;BME280;30989;52.078;21.014;2023-05-10T06:40:17;166933.13;;;12.11;53.28
45255;BME280;30989;52.078;21.014;2023-05-10T06:42:43;166963.97;;;12.22;53.50
45255;BME280;30989;52.078;21.014;2023-05-10T06:45:10;166984.06;;;12.30;52.72
45255;BME280;30989;52.078;21.014;2023-05-10T06:47:36;167014.91;;;12.42;52.47
45255;BME280;30989;52.078;21.014;2023-05-10T06:50:01;167048.44;;;12.54;52.46
45255;BME280;30989;52.078;21.014;2023-05-10T06:52:26;167075.25;;;12.65;51.98
45255;BME280;30989;52.078;21.014;2023-05-10T06:54:52;167106.09;;;12.76;49.97
45255;BME280;30989;52.078;21.014;2023-05-10T06:57:17;167128.91;;;12.85;50.40
45255;BME280;30989;52.078;21.014;2023-05-10T06:59:43;167174.50;;;13.02;49.67
45255;BME280;30989;52.078;21.014;2023-05-10T07:02:08;167220.16;;;13.19;49.75
45255;BME280;30989;52.078;21.014;2023-05-10T07:04:34;167255.03;;;13.33;50.01
45255;BME280;30989;52.078;21.014;2023-05-10T07:06:59;167289.94;;;13.46;48.92
45255;BME280;30989;52.078;21.014;2023-05-10T07:09:25;167314.06;;;13.55;48.39
45255;BME280;30989;52.078;21.014;2023-05-10T07:11:50;167336.88;;;13.64;47.94
45255;BME280;30989;52.078;21.014;2023-05-10T07:14:15;167359.69;;;13.72;47.50
45255;BME280;30989;52.078;21.014;2023-05-10T07:16:41;167383.84;;;13.81;47.89
45255;BME280;30989;52.078;21.014;2023-05-10T07:19:06;167391.91;;;13.84;45.28
45255;BME280;30989;52.078;21.014;2023-05-10T07:21:32;167410.69;;;13.92;45.79
45255;BME280;30989;52.078;21.014;2023-05-10T07:23:57;167418.75;;;13.95;44.17
45255;BME280;30989;52.078;21.014;2023-05-10T07:26:23;167424.13;;;13.97;43.97
45255;BME280;30989;52.078;21.014;2023-05-10T07:28:49;167426.81;;;13.98;44.27
45255;BME280;30989;52.078;21.014;2023-05-10T07:31:14;167432.16;;;14.00;42.60
45255;BME280;30989;52.078;21.014;2023-05-10T07:33:40;167433.50;;;14.00;41.74
45255;BME280;30989;52.078;21.014;2023-05-10T07:36:06;167436.19;;;14.01;41.77
45255;BME280;30989;52.078;21.014;2023-05-10T07:38:31;167444.25;;;14.04;41.82
45255;BME280;30989;52.078;21.014;2023-05-10T07:40:56;167438.88;;;14.02;41.95
45255;BME280;30989;52.078;21.014;2023-05-10T07:43:22;167472.44;;;14.15;40.95
45255;BME280;30989;52.078;21.014;2023-05-10T07:45:47;167461.69;;;14.11;39.04
45255;BME280;30989;52.078;21.014;2023-05-10T07:48:13;167475.13;;;14.16;38.92
45255;BME280;30989;52.078;21.014;2023-05-10T07:50:38;167483.16;;;14.19;39.76
45255;BME280;30989;52.078;21.014;2023-05-10T07:53:03;167511.38;;;14.30;40.08
45255;BME280;30989;52.078;21.014;2023-05-10T07:55:29;167534.19;;;14.38;39.34
45255;BME280;30989;52.078;21.014;2023-05-10T07:57:54;167557.06;;;14.47;37.35
45255;BME280;30989;52.078;21.014;2023-05-10T08:00:20;167575.84;;;14.54;38.35
45255;BME280;30989;52.078;21.014;2023-05-10T08:02:46;167587.94;;;14.59;38.15
45255;BME280;30989;52.078;21.014;2023-05-10T08:05:12;167574.50;;;14.54;37.95
45255;BME280;30989;52.078;21.014;2023-05-10T08:07:37;167608.06;;;14.66;37.43
45255;BME280;30989;52.078;21.014;2023-05-10T08:10:03;167632.25;;;14.75;37.70
45255;BME280;30989;52.078;21.014;2023-05-10T08:12:29;167655.06;;;14.84;36.52
45255;BME280;30989;52.078;21.014;2023-05-10T08:14:54;167641.66;;;14.79;35.96
45255;BME280;30989;52.078;21.014;2023-05-10T08:17:19;167638.97;;;14.78;37.07
45255;BME280;30989;52.078;21.014;2023-05-10T08:19:45;167651.03;;;14.82;35.99
45255;BME280;30989;52.078;21.014;2023-05-10T08:22:10;167667.16;;;14.89;37.55
45255;BME280;30989;52.078;21.014;2023-05-10T08:24:36;167687.31;;;14.96;37.42
45255;BME280;30989;52.078;21.014;2023-05-10T08:27:05;167691.34;;;14.98;35.45
45255;BME280;30989;52.078;21.014;2023-05-10T08:29:30;167724.91;;;15.10;36.54
45255;BME280;30989;52.078;21.014;2023-05-10T08:31:55;167746.41;;;15.19;36.56
45255;BME280;30989;52.078;21.014;2023-05-10T08:34:21;167759.81;;;15.24;36.11
45255;BME280;30989;52.078;21.014;2023-05-10T08:36:46;167779.97;;;15.31;37.38
45255;BME280;30989;52.078;21.014;2023-05-10T08:39:12;167812.22;;;15.43;36.89
45255;BME280;30989;52.078;21.014;2023-05-10T08:41:39;167832.38;;;15.51;35.99
45255;BME280;30989;52.078;21.014;2023-05-10T08:44:07;167832.38;;;15.51;34.81
45255;BME280;30989;52.078;21.014;2023-05-10T08:46:34;167839.06;;;15.54;35.27
45255;BME280;30989;52.078;21.014;2023-05-10T08:49:02;167845.78;;;15.56;36.18
45255;BME280;30989;52.078;21.014;2023-05-10T08:51:34;167870.09;;;15.65;35.58
45255;BME280;30989;52.078;21.014;2023-05-10T08:54:01;167882.16;;;15.70;36.14
45255;BME280;30989;52.078;21.014;2023-05-10T08:56:28;167921.13;;;15.85;35.37
45255;BME280;30989;52.078;21.014;2023-05-10T08:58:53;167942.63;;;15.93;34.49
45255;BME280;30989;52.078;21.014;2023-05-10T09:01:19;167934.56;;;15.90;35.92
45255;BME280;30989;52.078;21.014;2023-05-10T09:03:46;167969.50;;;16.03;36.13
45255;BME280;30989;52.078;21.014;2023-05-10T09:06:12;167999.06;;;16.14;36.01
45255;BME280;30989;52.078;21.014;2023-05-10T09:08:38;168019.22;;;16.22;35.56
45255;BME280;30989;52.078;21.014;2023-05-10T09:11:05;168025.94;;;16.24;34.59
45255;BME280;30989;52.078;21.014;2023-05-10T09:13:31;168012.50;;;16.19;34.92
45255;BME280;30989;52.078;21.014;2023-05-10T09:15:57;168016.53;;;16.21;34.88
45255;BME280;30989;52.078;21.014;2023-05-10T09:18:23;168012.50;;;16.19;35.37
45255;BME280;30989;52.078;21.014;2023-05-10T09:20:49;168038.03;;;16.29;35.38
45255;BME280;30989;52.078;21.014;2023-05-10T09:23:14;168066.25;;;16.39;35.63
45255;BME280;30989;52.078;21.014;2023-05-10T09:25:41;168103.91;;;16.54;35.54
45255;BME280;30989;52.078;21.014;2023-05-10T09:28:07;168129.44;;;16.63;34.61
45255;BME280;30989;52.078;21.014;2023-05-10T09:30:34;168128.09;;;16.63;34.13
45255;BME280;30989;52.078;21.014;2023-05-10T09:33:01;168138.91;;;16.67;35.21
45255;BME280;30989;52.078;21.014;2023-05-10T09:35:28;168172.50;;;16.80;34.67
45255;BME280;30989;52.078;21.014;2023-05-10T09:38:00;168168.47;;;16.78;34.54
45255;BME280;30989;52.078;21.014;2023-05-10T09:40:27;168163.09;;;16.76;33.79
45255;BME280;30989;52.078;21.014;2023-05-10T09:43:06;168157.72;;;16.74;34.43
45255;BME280;30989;52.078;21.014;2023-05-10T09:45:34;168137.56;;;16.66;34.10
45255;BME280;30989;52.078;21.014;2023-05-10T09:48:03;168167.13;;;16.78;34.64
45255;BME280;30989;52.078;21.014;2023-05-10T09:50:29;168208.81;;;16.93;34.10
45255;BME280;30989;52.078;21.014;2023-05-10T09:53:00;168245.13;;;17.07;34.68
45255;BME280;30989;52.078;21.014;2023-05-10T09:55:46;168281.41;;;17.21;33.87
45255;BME280;30989;52.078;21.014;2023-05-10T09:58:14;168300.25;;;17.28;34.48
45255;BME280;30989;52.078;21.014;2023-05-10T10:00:41;168300.25;;;17.28;34.07
45255;BME280;30989;52.078;21.014;2023-05-10T10:03:13;168306.97;;;17.30;32.89
45255;BME280;30989;52.078;21.014;2023-05-10T10:05:40;168308.31;;;17.31;33.94
45255;BME280;30989;52.078;21.014;2023-05-10T10:08:07;168316.38;;;17.34;32.20
45255;BME280;30989;52.078;21.014;2023-05-10T10:10:33;168333.84;;;17.40;33.59
45255;BME280;30989;52.078;21.014;2023-05-10T10:12:59;168348.66;;;17.46;32.71
45255;BME280;30989;52.078;21.014;2023-05-10T10:15:25;168375.56;;;17.56;33.71
45255;BME280;30989;52.078;21.014;2023-05-10T10:17:52;168367.47;;;17.53;32.49
45255;BME280;30989;52.078;21.014;2023-05-10T10:20:19;168397.06;;;17.64;32.57
45255;BME280;30989;52.078;21.014;2023-05-10T10:22:45;168397.06;;;17.64;33.14
45255;BME280;30989;52.078;21.014;2023-05-10T10:25:12;168429.41;;;17.77;32.45
45255;BME280;30989;52.078;21.014;2023-05-10T10:35:29;168498.00;;;18.02;32.24
45255;BME280;30989;52.078;21.014;2023-05-10T10:37:55;168523.56;;;18.12;31.70
45255;BME280;30989;52.078;21.014;2023-05-10T10:40:29;168551.81;;;18.23;32.66
45255;BME280;30989;52.078;21.014;2023-05-10T10:42:56;168593.53;;;18.39;32.54
45255;BME280;30989;52.078;21.014;2023-05-10T10:45:22;168654.13;;;18.61;33.13
45255;BME280;30989;52.078;21.014;2023-05-10T10:47:48;168705.28;;;18.81;32.76
45255;BME280;30989;52.078;21.014;2023-05-10T10:50:15;168726.81;;;18.89;31.90
45255;BME280;30989;52.078;21.014;2023-05-10T10:52:43;168780.66;;;19.09;32.07
45255;BME280;30989;52.078;21.014;2023-05-10T10:55:11;168831.78;;;19.28;31.79
45255;BME280;30989;52.078;21.014;2023-05-10T11:02:51;169010.94;;;19.96;31.63
45255;BME280;30989;52.078;21.014;2023-05-10T11:07:56;169111.94;;;20.34;31.10
45255;BME280;30989;52.078;21.014;2023-05-10T11:10:22;169167.22;;;20.55;30.89
45255;BME280;30989;52.078;21.014;2023-05-10T11:13:02;169221.09;;;20.75;31.17
45255;BME280;30989;52.078;21.014;2023-05-10T11:17:56;169330.28;;;21.16;30.80
45255;BME280;30989;52.078;21.014;2023-05-10T11:20:21;169381.56;;;21.36;29.96
45255;BME280;30989;52.078;21.014;2023-05-10T11:22:53;169482.63;;;21.74;28.19
45255;BME280;30989;52.078;21.014;2023-05-10T11:25:19;169585.16;;;22.12;27.95
45255;BME280;30989;52.078;21.014;2023-05-10T11:27:47;169675.47;;;22.46;28.09
45255;BME280;30989;52.078;21.014;2023-05-10T11:30:13;169776.69;;;22.85;28.37
45255;BME280;30989;52.078;21.014;2023-05-10T11:32:39;169916.97;;;23.37;28.04
45255;BME280;30989;52.078;21.014;2023-05-10T11:35:09;170076.22;;;23.97;26.54
45255;BME280;30989;52.078;21.014;2023-05-10T11:37:35;170170.75;;;24.33;26.30
45255;BME280;30989;52.078;21.014;2023-05-10T11:40:01;170259.81;;;24.66;26.29
45255;BME280;30989;52.078;21.014;2023-05-10T11:42:28;170311.13;;;24.86;25.97
45255;BME280;30989;52.078;21.014;2023-05-10T11:44:54;170328.69;;;24.92;24.30
45255;BME280;30989;52.078;21.014;2023-05-10T11:47:19;170332.72;;;24.94;24.74
45255;BME280;30989;52.078;21.014;2023-05-10T11:49:46;170402.97;;;25.20;24.65
45255;BME280;30989;52.078;21.014;2023-05-10T11:52:11;170502.91;;;25.58;25.25
45255;BME280;30989;52.078;21.014;2023-05-10T11:54:37;170581.28;;;25.87;24.64
45255;BME280;30989;52.078;21.014;2023-05-10T11:57:03;170675.91;;;26.23;23.45
45255;BME280;30989;52.078;21.014;2023-05-10T11:59:29;170728.63;;;26.43;22.92
45255;BME280;30989;52.078;21.014;2023-05-10T12:01:55;170761.06;;;26.55;23.50
45255;BME280;30989;52.078;21.014;2023-05-10T12:04:20;170827.28;;;26.80;23.57
45255;BME280;30989;52.078;21.014;2023-05-10T12:06:46;170938.13;;;27.21;23.65
45255;BME280;30989;52.078;21.014;2023-05-10T12:09:12;170977.34;;;27.36;22.78
45255;BME280;30989;52.078;21.014;2023-05-10T12:11:39;170931.38;;;27.19;22.59
45255;BME280;30989;52.078;21.014;2023-05-10T12:14:05;170916.50;;;27.13;21.45
45255;BME280;30989;52.078;21.014;2023-05-10T12:16:32;170870.50;;;26.96;22.31
45255;BME280;30989;52.078;21.014;2023-05-10T12:18:59;170884.09;;;27.01;22.48
45255;BME280;30989;52.078;21.014;2023-05-10T12:21:25;170938.13;;;27.21;22.60
45255;BME280;30989;52.078;21.014;2023-05-10T12:23:53;171003.00;;;27.46;22.97
45255;BME280;30989;52.078;21.014;2023-05-10T12:26:22;170927.31;;;27.17;22.38
45255;BME280;30989;52.078;21.014;2023-05-10T12:28:48;170916.50;;;27.13;21.42
45255;BME280;30989;52.078;21.014;2023-05-10T12:31:13;170908.41;;;27.10;22.14
45255;BME280;30989;52.078;21.014;2023-05-10T12:33:43;170943.53;;;27.23;22.04
45255;BME280;30989;52.078;21.014;2023-05-10T12:36:13;170970.56;;;27.34;21.24
45255;BME280;30989;52.078;21.014;2023-05-10T12:38:41;171039.50;;;27.59;21.31
45255;BME280;30989;52.078;21.014;2023-05-10T12:41:10;171062.53;;;27.68;21.22
45255;BME280;30989;52.078;21.014;2023-05-10T12:43:36;171135.53;;;27.96;22.20
45255;BME280;30989;52.078;21.014;2023-05-10T12:46:07;171246.47;;;28.37;21.73
45255;BME280;30989;52.078;21.014;2023-05-10T12:48:33;171281.63;;;28.50;21.18
45255;BME280;30989;52.078;21.014;2023-05-10T12:51:00;171324.88;;;28.67;21.65
45255;BME280;30989;52.078;21.014;2023-05-10T12:53:25;171392.56;;;28.92;20.75
45255;BME280;30989;52.078;21.014;2023-05-10T12:55:51;171434.50;;;29.08;20.73
45255;BME280;30989;52.078;21.014;2023-05-10T12:58:16;171411.50;;;28.99;20.67
45255;BME280;30989;52.078;21.014;2023-05-10T13:00:41;171251.88;;;28.39;19.74
45255;BME280;30989;52.078;21.014;2023-05-10T13:03:07;171189.63;;;28.16;21.39
45255;BME280;30989;52.078;21.014;2023-05-10T13:05:33;171254.56;;;28.40;21.53
45255;BME280;30989;52.078;21.014;2023-05-10T13:07:59;171287.03;;;28.52;20.93
45255;BME280;30989;52.078;21.014;2023-05-10T13:10:24;171342.47;;;28.73;20.43